createdAt,value
2023-05-14T00:01:57.378Z,14.96
2023-05-14T00:06:11.146Z,15.01
2023-05-14T00:10:23.730Z,14.98
2023-05-14T00:14:36.291Z,14.99
2023-05-14T00:18:48.726Z,15.01
2023-05-14T00:23:01.407Z,14.98
2023-05-14T00:27:14.305Z,15.14
2023-05-14T00:31:26.739Z,14.99
2023-05-14T00:35:39.317Z,15.12
2023-05-14T00:39:51.636Z,15.09
2023-05-14T00:44:04.159Z,14.97
2023-05-14T00:48:16.650Z,15.00
2023-05-14T00:52:29.255Z,14.99
2023-05-14T00:56:42.459Z,15.01
2023-05-14T01:00:54.953Z,14.94
2023-05-14T01:05:08.841Z,14.94
2023-05-14T01:09:44.111Z,14.93
2023-05-14T01:14:18.997Z,15.07
2023-05-14T01:18:33.401Z,15.05
2023-05-14T01:22:46.077Z,14.97
2023-05-14T01:27:07.368Z,14.98
2023-05-14T01:31:28.112Z,15.02
2023-05-14T01:35:41.756Z,14.98
2023-05-14T01:39:56.362Z,15.02
2023-05-14T01:44:10.183Z,15.03
2023-05-14T01:48:23.245Z,15.14
2023-05-14T01:52:36.765Z,15.07
2023-05-14T01:56:49.229Z,15.12
2023-05-14T02:01:02.211Z,15.15
2023-05-14T02:05:14.850Z,15.09
2023-05-14T02:09:27.259Z,14.95
2023-05-14T02:13:39.748Z,14.88
2023-05-14T02:17:52.227Z,14.86
2023-05-14T02:22:04.794Z,15.00
2023-05-14T02:26:17.630Z,15.06
2023-05-14T02:30:31.592Z,14.92
2023-05-14T02:34:44.032Z,14.98
2023-05-14T02:38:56.542Z,14.88
2023-05-14T02:43:08.997Z,14.86
2023-05-14T02:47:21.724Z,14.91
2023-05-14T02:51:35.645Z,14.98
2023-05-14T02:55:48.026Z,15.12
2023-05-14T03:00:00.423Z,15.12
2023-05-14T03:04:13.287Z,15.03
2023-05-14T03:08:26.117Z,15.01
2023-05-14T03:12:38.449Z,14.94
2023-05-14T03:16:51.008Z,15.03
2023-05-14T03:21:04.282Z,15.03
2023-05-14T03:25:16.744Z,15.16
2023-05-14T03:29:29.162Z,15.06
2023-05-14T03:33:41.761Z,14.99
2023-05-14T03:37:54.369Z,14.94
2023-05-14T03:42:06.991Z,15.06
2023-05-14T03:46:19.489Z,15.00
2023-05-14T03:50:32.269Z,14.99
2023-05-14T03:54:44.853Z,14.96
2023-05-14T03:58:57.385Z,14.96
2023-05-14T04:03:10.218Z,14.95
2023-05-14T04:07:22.868Z,15.09
2023-05-14T04:11:35.318Z,15.07
2023-05-14T04:15:47.758Z,15.05
2023-05-14T04:20:00.249Z,15.09
2023-05-14T04:24:12.701Z,15.04
2023-05-14T04:28:25.260Z,14.99
2023-05-14T04:32:38.291Z,14.99
2023-05-14T04:36:51.586Z,15.07
2023-05-14T04:41:04.149Z,15.05
2023-05-14T04:45:17.086Z,15.12
2023-05-14T04:49:29.959Z,15.10
2023-05-14T04:53:42.447Z,15.06
2023-05-14T04:57:55.050Z,15.01
2023-05-14T05:02:07.459Z,15.04
2023-05-14T05:06:19.852Z,15.09
2023-05-14T05:10:32.213Z,15.04
2023-05-14T05:14:44.519Z,15.02
2023-05-14T05:18:57.062Z,15.11
2023-05-14T05:23:09.510Z,15.25
2023-05-14T05:27:22.333Z,15.22
2023-05-14T05:31:34.941Z,15.34
2023-05-14T05:35:48.526Z,15.32
2023-05-14T05:40:01.051Z,15.43
2023-05-14T05:44:13.482Z,15.47
2023-05-14T05:48:25.970Z,15.65
2023-05-14T05:52:39.239Z,15.79
2023-05-14T05:56:52.260Z,16.24
2023-05-14T06:01:04.674Z,16.47
2023-05-14T06:05:17.253Z,16.21
2023-05-14T06:09:30.956Z,16.31
2023-05-14T06:13:43.464Z,16.61
2023-05-14T06:17:55.972Z,16.96
2023-05-14T06:22:08.377Z,16.86
2023-05-14T06:26:21.332Z,17.10
2023-05-14T06:30:33.756Z,16.87
2023-05-14T06:34:46.183Z,16.80
2023-05-14T06:38:58.556Z,16.65
2023-05-14T06:43:10.946Z,16.87
2023-05-14T06:47:23.494Z,16.97
2023-05-14T06:51:36.062Z,17.50
2023-05-14T06:55:49.091Z,17.69
2023-05-14T07:00:03.243Z,17.63
2023-05-14T07:04:16.335Z,17.84
2023-05-14T07:08:28.827Z,18.85
2023-05-14T07:12:41.341Z,19.07
2023-05-14T07:16:53.962Z,19.15
2023-05-14T07:21:06.849Z,19.07
2023-05-14T07:25:19.298Z,19.65
2023-05-14T07:29:31.741Z,20.48
2023-05-14T07:33:44.202Z,20.74
2023-05-14T07:37:56.702Z,21.66
2023-05-14T07:42:09.481Z,22.39
2023-05-14T07:46:21.959Z,22.50
2023-05-14T07:50:34.546Z,22.08
2023-05-14T07:54:48.028Z,22.17
2023-05-14T07:59:01.868Z,21.67
2023-05-14T08:03:14.457Z,21.54
2023-05-14T08:07:28.781Z,21.92
2023-05-14T08:11:41.187Z,22.67
2023-05-14T08:15:53.628Z,23.02
2023-05-14T08:20:07.744Z,23.07
2023-05-14T08:24:20.177Z,23.46
2023-05-14T08:28:32.775Z,23.31
2023-05-14T08:32:45.241Z,22.18
2023-05-14T08:36:57.817Z,22.26
2023-05-14T08:41:12.020Z,21.95
2023-05-14T08:45:34.208Z,21.77
2023-05-14T08:50:07.692Z,21.52
2023-05-14T08:54:22.758Z,21.49
2023-05-14T08:58:35.123Z,21.69
2023-05-14T09:02:49.148Z,21.83
2023-05-14T09:07:02.972Z,21.98
2023-05-14T09:11:15.280Z,21.72
2023-05-14T09:15:29.858Z,21.42
2023-05-14T09:19:44.195Z,21.08
2023-05-14T09:23:57.926Z,21.09
2023-05-14T09:28:10.413Z,20.90
2023-05-14T09:32:22.832Z,21.03
2023-05-14T09:36:35.614Z,21.52
2023-05-14T09:40:49.487Z,21.86
2023-05-14T09:45:02.092Z,21.82
2023-05-14T09:49:15.058Z,21.83
2023-05-14T09:53:27.671Z,21.95
2023-05-14T09:57:40.246Z,21.76
2023-05-14T10:01:53.298Z,22.29
2023-05-14T10:06:07.072Z,22.18
2023-05-14T10:10:21.297Z,22.33
2023-05-14T10:14:41.568Z,22.02
2023-05-14T10:18:59.511Z,21.81
2023-05-14T10:23:12.576Z,21.95
2023-05-14T10:27:25.994Z,22.03
2023-05-14T10:31:57.190Z,22.23
2023-05-14T10:36:10.793Z,22.16
2023-05-14T10:40:24.978Z,22.08
2023-05-14T10:44:47.599Z,22.07
2023-05-14T10:49:00.117Z,21.97
2023-05-14T10:53:14.036Z,21.93
2023-05-14T10:57:28.904Z,21.80
2023-05-14T11:01:41.648Z,21.48
2023-05-14T11:05:55.445Z,21.50
2023-05-14T11:10:10.137Z,21.11
2023-05-14T11:14:23.403Z,20.60
2023-05-14T11:18:38.962Z,20.93
2023-05-14T11:22:54.118Z,20.48
2023-05-14T11:27:09.639Z,19.99
2023-05-14T11:31:23.643Z,19.97
2023-05-14T11:35:37.226Z,19.56
2023-05-14T11:39:51.375Z,19.38
2023-05-14T11:44:04.083Z,19.42
2023-05-14T11:48:16.556Z,19.62
2023-05-14T11:52:29.145Z,19.66
2023-05-14T11:56:41.539Z,19.38
2023-05-14T12:00:55.884Z,19.17
2023-05-14T12:05:09.387Z,18.65
2023-05-14T12:09:22.928Z,18.70
2023-05-14T12:13:37.451Z,18.35
2023-05-14T12:17:52.033Z,18.30
2023-05-14T12:22:04.690Z,18.16
2023-05-14T12:26:17.219Z,18.46
2023-05-14T12:30:38.441Z,18.35
2023-05-14T12:34:51.110Z,18.23
2023-05-14T12:39:04.304Z,18.14
2023-05-14T12:43:16.671Z,17.97
2023-05-14T12:47:29.241Z,17.80
2023-05-14T12:51:41.929Z,17.75
2023-05-14T12:55:55.904Z,17.59
2023-05-14T13:00:14.079Z,18.05
2023-05-14T13:04:27.063Z,17.99
2023-05-14T13:08:41.017Z,17.79
2023-05-14T13:12:56.632Z,17.64
2023-05-14T13:17:09.080Z,17.60
2023-05-14T13:21:21.926Z,17.75
2023-05-14T13:25:34.841Z,17.60
2023-05-14T13:29:47.321Z,17.73
2023-05-14T13:33:59.975Z,17.57
2023-05-14T13:38:12.349Z,17.43
2023-05-14T13:42:24.779Z,17.55
2023-05-14T13:46:37.281Z,17.95
2023-05-14T13:50:50.058Z,17.97
2023-05-14T13:55:02.452Z,18.14
2023-05-14T13:59:15.587Z,18.20
2023-05-14T14:03:27.989Z,18.44
2023-05-14T14:07:41.049Z,18.57
2023-05-14T14:11:53.719Z,18.66
2023-05-14T14:16:07.118Z,18.74
2023-05-14T14:20:19.504Z,19.08
2023-05-14T14:24:31.921Z,19.31
2023-05-14T14:28:44.307Z,19.37
2023-05-14T14:32:57.145Z,19.80
2023-05-14T14:37:09.665Z,19.78
2023-05-14T14:41:22.684Z,20.09
2023-05-14T14:45:35.283Z,20.05
2023-05-14T14:49:47.797Z,20.15
2023-05-14T14:54:00.370Z,20.37
2023-05-14T14:58:12.878Z,20.37
2023-05-14T15:02:25.918Z,20.55
2023-05-14T15:06:38.418Z,20.32
2023-05-14T15:10:50.901Z,20.47
2023-05-14T15:15:03.370Z,20.41
2023-05-14T15:19:15.841Z,20.32
2023-05-14T15:23:28.343Z,20.25
2023-05-14T15:27:40.904Z,20.17
2023-05-14T15:31:53.421Z,20.23
2023-05-14T15:36:08.524Z,20.12
2023-05-14T15:40:21.085Z,20.10
2023-05-14T15:44:33.568Z,19.80
2023-05-14T15:48:46.141Z,19.58
2023-05-14T15:52:58.550Z,19.60
2023-05-14T15:57:11.088Z,19.65
2023-05-14T16:01:23.486Z,19.86
2023-05-14T16:05:36.846Z,20.17
2023-05-14T16:09:49.204Z,20.10
2023-05-14T16:14:01.602Z,20.05
2023-05-14T16:18:14.028Z,20.11
2023-05-14T16:22:27.043Z,20.02
2023-05-14T16:26:40.273Z,20.01
2023-05-14T16:30:52.710Z,20.06
2023-05-14T16:35:05.494Z,20.19
2023-05-14T16:39:17.855Z,20.20
2023-05-14T16:43:30.357Z,20.04
2023-05-14T16:47:42.780Z,19.98
2023-05-14T16:51:55.263Z,19.84
2023-05-14T16:56:07.878Z,19.75
2023-05-14T17:00:20.283Z,19.66
2023-05-14T17:04:33.652Z,19.47
2023-05-14T17:08:46.207Z,19.31
2023-05-14T17:12:58.757Z,19.25
2023-05-14T17:17:11.287Z,19.14
2023-05-14T17:21:23.865Z,19.13
2023-05-14T17:25:36.302Z,19.15
2023-05-14T17:29:51.255Z,19.11
2023-05-14T17:34:03.736Z,18.99
2023-05-14T17:38:16.042Z,18.92
2023-05-14T17:42:28.620Z,18.95
2023-05-14T17:46:42.017Z,18.75
2023-05-14T17:50:54.536Z,18.56
2023-05-14T17:55:07.277Z,18.43
2023-05-14T17:59:19.837Z,18.35
2023-05-14T18:03:32.446Z,18.27
2023-05-14T18:07:44.936Z,18.24
2023-05-14T18:11:57.391Z,18.19
2023-05-14T18:16:09.867Z,18.16
2023-05-14T18:20:22.233Z,18.11
2023-05-14T18:24:34.583Z,18.10
2023-05-14T18:28:47.017Z,18.15
2023-05-14T18:33:00.154Z,18.14
2023-05-14T18:37:12.851Z,18.06
2023-05-14T18:41:25.332Z,18.07
2023-05-14T18:45:37.897Z,18.13
2023-05-14T18:49:55.152Z,18.08
2023-05-14T18:54:07.563Z,18.13
2023-05-14T18:58:19.998Z,18.14
2023-05-14T19:02:32.539Z,18.11
2023-05-14T19:06:45.127Z,18.05
2023-05-14T19:10:57.670Z,18.04
2023-05-14T19:15:10.973Z,18.00
2023-05-14T19:19:23.482Z,17.94
2023-05-14T19:23:36.013Z,17.85
2023-05-14T19:27:51.348Z,17.72
2023-05-14T19:32:04.917Z,17.59
2023-05-14T19:36:17.382Z,17.60
2023-05-14T19:40:29.892Z,17.61
2023-05-14T19:44:42.209Z,17.31
2023-05-14T19:48:57.578Z,17.10
2023-05-14T19:53:10.107Z,17.04
2023-05-14T19:57:22.742Z,16.90
2023-05-14T20:01:35.331Z,16.80
2023-05-14T20:05:49.221Z,16.68
2023-05-14T20:10:01.766Z,16.54
2023-05-14T20:14:14.592Z,16.45
2023-05-14T20:18:28.539Z,16.35
2023-05-14T20:22:42.880Z,16.25
2023-05-14T20:26:55.525Z,16.30
2023-05-14T20:31:08.290Z,16.27
2023-05-14T20:35:20.872Z,16.19
2023-05-14T20:39:33.401Z,16.24
2023-05-14T20:43:46.094Z,16.26
2023-05-14T20:47:59.835Z,16.23
2023-05-14T20:52:13.678Z,16.33
2023-05-14T20:56:26.920Z,16.31
2023-05-14T21:00:39.505Z,16.17
2023-05-14T21:04:52.529Z,16.19
2023-05-14T21:09:06.238Z,16.14
2023-05-14T21:13:18.854Z,16.11
2023-05-14T21:17:31.476Z,15.84
2023-05-14T21:21:44.075Z,16.08
2023-05-14T21:25:56.623Z,16.17
2023-05-14T21:30:09.672Z,16.33
2023-05-14T21:34:22.162Z,16.84
2023-05-14T21:38:35.332Z,17.00
2023-05-14T21:42:47.800Z,16.75
2023-05-14T21:47:00.177Z,17.30
2023-05-14T21:51:12.695Z,17.12
2023-05-14T21:55:26.011Z,16.92
2023-05-14T21:59:38.509Z,17.08
2023-05-14T22:03:50.969Z,17.50
2023-05-14T22:08:03.398Z,17.76
2023-05-14T22:12:16.115Z,17.57
2023-05-14T22:16:28.462Z,17.99
2023-05-14T22:20:40.840Z,17.71
2023-05-14T22:24:53.217Z,18.01
2023-05-14T22:29:05.607Z,17.96
2023-05-14T22:33:19.796Z,18.66
2023-05-14T22:37:32.258Z,18.43
2023-05-14T22:41:44.655Z,18.12
2023-05-14T22:45:57.063Z,18.02
2023-05-14T22:50:11.865Z,17.72
2023-05-14T22:54:24.246Z,17.44
2023-05-14T22:58:37.854Z,17.13
2023-05-14T23:02:50.342Z,17.19
2023-05-14T23:07:03.047Z,17.14
2023-05-14T23:11:15.910Z,17.13
2023-05-14T23:15:28.377Z,17.05
2023-05-14T23:19:42.100Z,16.74
2023-05-14T23:23:54.553Z,16.55
2023-05-14T23:28:07.406Z,16.43
2023-05-14T23:32:20.171Z,16.27
2023-05-14T23:36:36.308Z,16.18
2023-05-14T23:40:48.714Z,15.96
2023-05-14T23:45:03.626Z,15.73
2023-05-14T23:49:16.164Z,15.64
2023-05-14T23:53:28.550Z,15.60
2023-05-14T23:57:41.512Z,15.66
